Brockley, United Kingdom
Current Conditions -  °F | °C
As of 8:50 PM on Thursday 20 Nov 2014 (Local Time) from EGLC Reporting Station
Scattered Clouds Scattered Clouds  
Wind Chill:   Ceiling: Unl
Heat Index:   Visibility: 5mi
Dew Point:   Wind: 7mph
Humidity: 87%   Direction: 70°ENE
Pressure: 30.24"   Gusts: NA
Location:  51.45°N, 0.03°W
Report Text: EGLC 202050Z 07006KT 8000 FEW018 SCT024 09/07 Q1024
Loading
Personal Weather Stations






























Interactive Weather Map New forecast layout! Learn more

10-Day Weather Forecast

Advertisements
Track Severe Weather on mobile